createdAt,value
2019-01-30T00:00:28.744Z,22.20
2019-01-30T00:01:28.766Z,18.80
2019-01-30T00:02:28.742Z,19.80
2019-01-30T00:03:28.734Z,22.10
2019-01-30T00:04:28.736Z,22.80
2019-01-30T00:05:28.751Z,18.00
2019-01-30T00:06:28.759Z,17.30
2019-01-30T00:07:28.783Z,17.50
2019-01-30T00:08:28.783Z,16.60
2019-01-30T00:09:28.752Z,17.90
2019-01-30T00:10:28.754Z,16.90
2019-01-30T00:11:28.754Z,18.20
2019-01-30T00:12:28.787Z,17.40
2019-01-30T00:13:28.782Z,15.70
2019-01-30T00:14:28.765Z,16.60
2019-01-30T00:15:28.756Z,18.50
2019-01-30T00:16:28.772Z,18.50
2019-01-30T00:17:28.768Z,18.50
2019-01-30T00:18:28.789Z,16.80
2019-01-30T00:19:28.784Z,16.70
2019-01-30T00:20:28.776Z,17.80
2019-01-30T00:21:28.774Z,19.20
2019-01-30T00:22:28.824Z,23.10
2019-01-30T00:23:28.809Z,19.40
2019-01-30T00:24:28.782Z,20.30
2019-01-30T00:25:28.787Z,21.60
2019-01-30T00:26:28.792Z,23.40
2019-01-30T00:27:28.803Z,22.60
2019-01-30T00:28:28.817Z,18.00
2019-01-30T00:29:28.849Z,18.60
2019-01-30T00:30:28.814Z,20.20
2019-01-30T00:31:28.819Z,18.60
2019-01-30T00:32:28.855Z,19.70
2019-01-30T00:33:28.797Z,17.50
2019-01-30T00:34:28.799Z,20.10
2019-01-30T00:35:28.802Z,18.80
2019-01-30T00:36:28.817Z,18.00
2019-01-30T00:37:28.824Z,18.50
2019-01-30T00:38:28.827Z,18.30
2019-01-30T00:39:28.866Z,19.90
2019-01-30T00:40:28.807Z,18.40
2019-01-30T00:41:28.835Z,18.10
2019-01-30T00:42:28.806Z,16.80
2019-01-30T00:43:28.813Z,16.80
2019-01-30T00:44:28.855Z,19.80
2019-01-30T00:45:28.839Z,16.80
2019-01-30T00:46:28.846Z,17.70
2019-01-30T00:47:28.837Z,17.70
2019-01-30T00:48:28.829Z,15.90
2019-01-30T00:49:28.860Z,16.10
2019-01-30T00:50:28.827Z,18.00
2019-01-30T00:51:28.845Z,16.60
2019-01-30T00:52:28.840Z,16.40
2019-01-30T00:53:28.856Z,17.90
2019-01-30T00:54:32.109Z,18.00
2019-01-30T00:55:28.838Z,17.20
2019-01-30T00:56:28.848Z,18.70
2019-01-30T00:57:28.853Z,17.70
2019-01-30T00:58:28.838Z,16.60
2019-01-30T00:59:28.916Z,17.80
2019-01-30T01:00:28.870Z,18.30
2019-01-30T01:01:28.867Z,18.30
2019-01-30T01:02:28.854Z,18.30
2019-01-30T01:03:28.855Z,18.10
2019-01-30T01:04:28.863Z,17.80
2019-01-30T01:05:28.894Z,18.30
2019-01-30T01:06:28.912Z,18.30
2019-01-30T01:07:28.886Z,19.00
2019-01-30T01:08:28.887Z,21.20
2019-01-30T01:09:28.865Z,18.00
2019-01-30T01:10:28.901Z,17.20
2019-01-30T01:11:28.887Z,17.30
2019-01-30T01:12:28.915Z,18.40
2019-01-30T01:13:28.889Z,17.80
2019-01-30T01:14:28.932Z,19.80
2019-01-30T01:15:28.883Z,17.70
2019-01-30T01:16:28.896Z,17.20
2019-01-30T01:17:28.959Z,18.70
2019-01-30T01:18:28.879Z,17.40
2019-01-30T01:19:28.875Z,17.10
2019-01-30T01:20:28.902Z,17.20
2019-01-30T01:21:28.906Z,17.60
2019-01-30T01:22:28.897Z,17.20
2019-01-30T01:23:28.938Z,17.40
2019-01-30T01:24:28.903Z,16.40
2019-01-30T01:25:28.921Z,17.30
2019-01-30T01:26:28.926Z,16.20
2019-01-30T01:27:28.925Z,15.70
2019-01-30T01:28:28.927Z,17.50
2019-01-30T01:29:28.972Z,16.40
2019-01-30T01:30:28.930Z,17.00
2019-01-30T01:31:28.931Z,17.30
2019-01-30T01:32:28.923Z,16.40
2019-01-30T01:33:28.951Z,17.60
2019-01-30T01:34:28.966Z,17.90
2019-01-30T01:35:28.952Z,17.90
2019-01-30T01:36:28.970Z,19.80
2019-01-30T01:37:28.921Z,19.30
2019-01-30T01:38:28.915Z,16.80
2019-01-30T01:39:28.934Z,18.30
2019-01-30T01:40:28.960Z,18.70
2019-01-30T01:41:28.933Z,18.40
2019-01-30T01:42:28.964Z,17.50
2019-01-30T01:43:29.076Z,17.90
2019-01-30T01:44:28.932Z,20.20
2019-01-30T01:45:29.149Z,17.30
2019-01-30T01:46:28.953Z,19.20
2019-01-30T01:47:28.938Z,17.50
2019-01-30T01:48:28.961Z,18.60
2019-01-30T01:49:29.009Z,17.50
2019-01-30T01:50:28.970Z,19.60
2019-01-30T01:51:29.009Z,17.60
2019-01-30T01:52:28.977Z,16.80
2019-01-30T01:53:28.964Z,17.20
2019-01-30T01:54:29.006Z,17.00
2019-01-30T01:55:28.976Z,19.70
2019-01-30T01:56:28.988Z,16.80
2019-01-30T01:57:29.013Z,18.60
2019-01-30T01:58:29.013Z,18.20
2019-01-30T01:59:28.968Z,17.00
2019-01-30T02:00:35.214Z,19.10
2019-01-30T02:01:29.246Z,17.70
2019-01-30T02:02:28.973Z,17.40
2019-01-30T02:03:29.019Z,16.80
2019-01-30T02:04:28.972Z,17.10
2019-01-30T02:05:28.970Z,19.50
2019-01-30T02:06:29.007Z,18.10
2019-01-30T02:07:29.040Z,17.30
2019-01-30T02:08:28.986Z,17.20
2019-01-30T02:09:28.981Z,18.70
2019-01-30T02:10:29.012Z,17.90
2019-01-30T02:11:29.008Z,17.90
2019-01-30T02:12:29.016Z,18.00
2019-01-30T02:13:29.043Z,17.80
2019-01-30T02:14:29.026Z,18.90
2019-01-30T02:15:28.998Z,18.70
2019-01-30T02:16:29.012Z,17.10
2019-01-30T02:17:29.092Z,17.00
2019-01-30T02:18:29.001Z,17.50
2019-01-30T02:19:29.025Z,17.50
2019-01-30T02:20:28.995Z,18.20
2019-01-30T02:21:29.007Z,17.80
2019-01-30T02:22:29.011Z,17.80
2019-01-30T02:23:29.067Z,17.00
2019-01-30T02:24:29.075Z,17.00
2019-01-30T02:25:29.013Z,16.80
2019-01-30T02:26:29.043Z,17.40
2019-01-30T02:27:29.028Z,17.70
2019-01-30T02:28:29.044Z,17.50
2019-01-30T02:29:29.031Z,17.30
2019-01-30T02:30:29.023Z,16.90
2019-01-30T02:31:29.130Z,17.60
2019-01-30T02:32:29.023Z,18.30
2019-01-30T02:33:29.084Z,17.90
2019-01-30T02:34:29.071Z,16.00
2019-01-30T02:35:29.059Z,17.20
2019-01-30T02:36:29.069Z,17.10
2019-01-30T02:37:29.091Z,17.80
2019-01-30T02:38:29.030Z,17.90
2019-01-30T02:39:29.046Z,17.60
2019-01-30T02:40:29.053Z,18.30
2019-01-30T02:41:29.078Z,18.10
2019-01-30T02:42:29.068Z,17.10
2019-01-30T02:43:29.035Z,17.70
2019-01-30T02:44:29.404Z,20.10
2019-01-30T02:45:29.096Z,17.90
2019-01-30T02:46:29.060Z,18.60
2019-01-30T02:47:29.059Z,18.00
2019-01-30T02:48:29.059Z,19.00
2019-01-30T02:49:29.069Z,17.40
2019-01-30T02:50:29.173Z,17.50
2019-01-30T02:51:29.087Z,19.70
2019-01-30T02:52:29.097Z,17.10
2019-01-30T02:53:29.078Z,17.10
2019-01-30T02:54:29.055Z,17.80
2019-01-30T02:55:29.052Z,17.10
2019-01-30T02:56:29.108Z,19.50
2019-01-30T02:57:29.053Z,17.60
2019-01-30T02:58:29.086Z,18.30
2019-01-30T02:59:29.111Z,18.80
2019-01-30T03:00:29.072Z,20.70
2019-01-30T03:01:29.089Z,18.00
2019-01-30T03:02:29.144Z,19.20
2019-01-30T03:03:29.064Z,18.20
2019-01-30T03:04:29.092Z,19.00
2019-01-30T03:05:29.066Z,18.90
2019-01-30T03:06:29.114Z,18.30
2019-01-30T03:07:29.119Z,18.30
2019-01-30T03:08:29.158Z,18.50
2019-01-30T03:09:29.119Z,18.30
2019-01-30T03:10:29.086Z,19.20
2019-01-30T03:11:29.091Z,18.70
2019-01-30T03:12:29.098Z,18.70
2019-01-30T03:13:29.089Z,19.30
2019-01-30T03:14:29.110Z,18.90
2019-01-30T03:15:29.103Z,21.40
2019-01-30T03:16:29.140Z,20.40
2019-01-30T03:17:29.088Z,19.40
2019-01-30T03:18:29.117Z,21.90
2019-01-30T03:19:29.134Z,20.40
2019-01-30T03:20:29.107Z,18.60
2019-01-30T03:21:29.099Z,20.60
2019-01-30T03:22:29.113Z,20.30
2019-01-30T03:23:29.168Z,19.00
2019-01-30T03:24:29.112Z,19.90
2019-01-30T03:25:29.129Z,19.60
2019-01-30T03:26:29.123Z,19.10
2019-01-30T03:27:29.107Z,20.40
2019-01-30T03:28:29.131Z,19.70
2019-01-30T03:29:29.143Z,19.20
2019-01-30T03:30:29.278Z,20.40
2019-01-30T03:31:29.151Z,19.20
2019-01-30T03:32:29.113Z,21.40
2019-01-30T03:33:29.150Z,21.00
2019-01-30T03:34:29.128Z,19.40
2019-01-30T03:35:29.113Z,20.80
2019-01-30T03:36:29.184Z,18.50
2019-01-30T03:37:29.135Z,19.30
2019-01-30T03:38:29.114Z,20.70
2019-01-30T03:39:29.127Z,20.80
2019-01-30T03:40:29.152Z,21.90
2019-01-30T03:41:29.134Z,19.50
2019-01-30T03:42:29.154Z,19.50
2019-01-30T03:43:29.226Z,18.90
2019-01-30T03:44:29.151Z,19.10
2019-01-30T03:45:29.167Z,20.90
2019-01-30T03:46:29.137Z,21.80
2019-01-30T03:47:29.149Z,19.80
2019-01-30T03:48:29.145Z,20.50
2019-01-30T03:49:29.142Z,19.10
2019-01-30T03:50:29.179Z,20.30
2019-01-30T03:51:29.186Z,18.30
2019-01-30T03:52:29.142Z,18.60
2019-01-30T03:53:29.167Z,19.80
2019-01-30T03:54:29.135Z,20.00
2019-01-30T03:55:29.173Z,18.70
2019-01-30T03:56:29.221Z,19.10
2019-01-30T03:57:29.275Z,19.70
2019-01-30T03:58:29.181Z,18.80
2019-01-30T03:59:29.150Z,19.10
2019-01-30T04:00:29.188Z,19.80
2019-01-30T04:01:29.239Z,19.10
2019-01-30T04:02:29.221Z,18.70
2019-01-30T04:03:29.165Z,18.10
2019-01-30T04:04:29.165Z,19.10
2019-01-30T04:05:29.184Z,18.60
2019-01-30T04:06:29.245Z,18.60
2019-01-30T04:07:29.225Z,17.80
2019-01-30T04:08:29.199Z,17.60
2019-01-30T04:09:29.199Z,19.00
2019-01-30T04:10:29.197Z,18.30
2019-01-30T04:11:29.189Z,21.80
2019-01-30T04:12:29.151Z,18.60
2019-01-30T04:13:29.212Z,18.10
2019-01-30T04:14:29.168Z,18.70
2019-01-30T04:15:29.216Z,18.00
2019-01-30T04:16:29.174Z,18.30
2019-01-30T04:17:29.180Z,18.60
2019-01-30T04:18:29.194Z,18.80
2019-01-30T04:19:29.200Z,18.10
2019-01-30T04:20:29.204Z,16.70
2019-01-30T04:21:29.185Z,16.20
2019-01-30T04:22:29.236Z,17.20
2019-01-30T04:23:29.246Z,18.10
2019-01-30T04:24:29.200Z,16.70
2019-01-30T04:25:29.180Z,18.50
2019-01-30T04:26:29.217Z,17.40
2019-01-30T04:27:29.229Z,17.00
2019-01-30T04:28:29.189Z,18.80
2019-01-30T04:29:29.257Z,16.60
2019-01-30T04:30:29.212Z,17.40
2019-01-30T04:31:37.841Z,18.50
2019-01-30T04:32:29.209Z,18.30
2019-01-30T04:33:29.243Z,17.40
2019-01-30T04:34:29.241Z,17.70
2019-01-30T04:35:29.190Z,17.10
2019-01-30T04:36:29.214Z,16.10
2019-01-30T04:37:29.206Z,16.20
2019-01-30T04:38:29.209Z,17.80
2019-01-30T04:39:29.243Z,17.10
2019-01-30T04:40:29.188Z,18.90
2019-01-30T04:41:29.204Z,16.80
2019-01-30T04:42:29.194Z,16.00
2019-01-30T04:43:29.208Z,15.60
2019-01-30T04:44:29.196Z,16.10
2019-01-30T04:45:29.263Z,17.20
2019-01-30T04:46:29.214Z,15.90
2019-01-30T04:47:29.200Z,15.80
2019-01-30T04:48:29.204Z,16.50
2019-01-30T04:49:29.242Z,15.40
2019-01-30T04:50:29.245Z,15.40
2019-01-30T04:51:29.256Z,16.00
2019-01-30T04:52:29.256Z,15.50
2019-01-30T04:53:29.291Z,17.20
2019-01-30T04:54:29.325Z,15.70
2019-01-30T04:55:29.276Z,15.60
2019-01-30T04:56:29.235Z,14.80
2019-01-30T04:57:29.248Z,15.60
2019-01-30T04:58:29.219Z,16.30
2019-01-30T04:59:29.213Z,14.90
2019-01-30T05:00:29.355Z,15.50
2019-01-30T05:01:29.258Z,16.40
2019-01-30T05:02:29.242Z,16.20
2019-01-30T05:03:29.227Z,14.80
2019-01-30T05:04:29.249Z,14.80
2019-01-30T05:05:29.265Z,15.60
2019-01-30T05:06:29.252Z,14.90
2019-01-30T05:07:29.309Z,15.80
2019-01-30T05:08:29.258Z,15.40
2019-01-30T05:09:29.229Z,14.60
2019-01-30T05:10:29.231Z,17.10
2019-01-30T05:11:29.267Z,15.10
2019-01-30T05:12:29.238Z,15.20
2019-01-30T05:13:29.287Z,15.30
2019-01-30T05:14:29.249Z,15.00
2019-01-30T05:15:29.238Z,15.60
2019-01-30T05:16:29.252Z,14.50
2019-01-30T05:17:29.239Z,14.80
2019-01-30T05:18:29.263Z,14.20
2019-01-30T05:19:29.248Z,15.30
2019-01-30T05:20:29.256Z,15.10
2019-01-30T05:21:29.264Z,15.10
2019-01-30T05:22:29.250Z,14.80
2019-01-30T05:23:29.301Z,14.40
2019-01-30T05:24:29.259Z,14.80
2019-01-30T05:25:29.271Z,15.20
2019-01-30T05:26:29.240Z,15.50
2019-01-30T05:27:29.236Z,15.90
2019-01-30T05:28:29.237Z,16.50
2019-01-30T05:29:29.302Z,15.90
2019-01-30T05:30:29.306Z,15.30
2019-01-30T05:31:29.320Z,16.40
2019-01-30T05:32:29.260Z,15.20
2019-01-30T05:33:29.255Z,14.80
2019-01-30T05:34:29.249Z,15.10
2019-01-30T05:35:29.295Z,14.30
2019-01-30T05:36:29.303Z,16.20
2019-01-30T05:37:29.298Z,15.40
2019-01-30T05:38:29.266Z,14.90
2019-01-30T05:39:29.271Z,14.90
2019-01-30T05:40:29.290Z,15.70
2019-01-30T05:41:29.301Z,16.00
2019-01-30T05:42:29.268Z,15.20
2019-01-30T05:43:29.277Z,14.80
2019-01-30T05:44:29.262Z,15.70
2019-01-30T05:45:29.291Z,15.20
2019-01-30T05:46:29.327Z,15.10
2019-01-30T05:47:29.288Z,15.10
2019-01-30T05:48:29.303Z,15.20
2019-01-30T05:49:29.301Z,15.20
2019-01-30T05:50:29.281Z,15.60
2019-01-30T05:51:29.278Z,14.50
2019-01-30T05:52:29.355Z,15.20
2019-01-30T05:53:29.343Z,14.90
2019-01-30T05:54:29.285Z,15.20
2019-01-30T05:55:29.292Z,14.20
2019-01-30T05:56:29.331Z,15.00
2019-01-30T05:57:29.299Z,14.40
2019-01-30T05:58:29.328Z,15.10
2019-01-30T05:59:29.289Z,16.10
2019-01-30T06:00:29.287Z,15.20
2019-01-30T06:01:29.284Z,16.50
2019-01-30T06:02:29.283Z,17.10
2019-01-30T06:03:29.330Z,18.60
2019-01-30T06:04:29.643Z,14.60
2019-01-30T06:05:29.286Z,15.20
2019-01-30T06:06:29.330Z,14.90
2019-01-30T06:07:29.301Z,15.30
2019-01-30T06:08:29.292Z,15.30
2019-01-30T06:09:29.364Z,15.10
2019-01-30T06:10:29.306Z,15.20
2019-01-30T06:11:29.322Z,17.00
2019-01-30T06:12:29.347Z,16.70
2019-01-30T06:13:29.387Z,14.80
2019-01-30T06:14:29.335Z,14.60
2019-01-30T06:15:29.325Z,15.10
2019-01-30T06:16:29.338Z,15.20
2019-01-30T06:17:29.322Z,15.60
2019-01-30T06:18:29.321Z,15.20
2019-01-30T06:19:29.345Z,15.60
2019-01-30T06:20:29.359Z,16.60
2019-01-30T06:21:29.321Z,15.80
2019-01-30T06:22:29.350Z,17.20
2019-01-30T06:23:29.324Z,18.20
2019-01-30T06:24:29.324Z,15.70
2019-01-30T06:25:29.337Z,16.00
2019-01-30T06:26:29.339Z,15.00
2019-01-30T06:27:29.373Z,14.80
2019-01-30T06:28:29.482Z,14.90
2019-01-30T06:29:29.366Z,15.30
2019-01-30T06:30:29.329Z,15.80
2019-01-30T06:31:29.429Z,15.70
2019-01-30T06:32:29.372Z,14.30
2019-01-30T06:33:29.368Z,15.10
2019-01-30T06:34:29.344Z,14.30
2019-01-30T06:35:29.356Z,14.60
2019-01-30T06:36:29.355Z,14.70
2019-01-30T06:37:29.351Z,14.50
2019-01-30T06:38:29.357Z,14.20
2019-01-30T06:39:29.355Z,14.60
2019-01-30T06:40:29.334Z,14.60
2019-01-30T06:41:29.329Z,15.00
2019-01-30T06:42:29.448Z,14.10
2019-01-30T06:43:29.368Z,16.70
2019-01-30T06:44:29.377Z,15.10
2019-01-30T06:45:29.334Z,15.50
2019-01-30T06:46:29.371Z,15.30
2019-01-30T06:47:29.434Z,15.00
2019-01-30T06:48:29.374Z,14.70
2019-01-30T06:49:29.357Z,15.20
2019-01-30T06:50:29.354Z,16.30
2019-01-30T06:51:29.460Z,16.00
2019-01-30T06:52:29.387Z,15.80
2019-01-30T06:53:29.399Z,15.00
2019-01-30T06:54:29.423Z,16.20
2019-01-30T06:55:29.397Z,15.60
2019-01-30T06:56:29.369Z,15.60
2019-01-30T06:57:29.423Z,15.40
2019-01-30T06:58:29.353Z,15.00
2019-01-30T06:59:29.395Z,16.60
2019-01-30T07:00:29.389Z,16.50
2019-01-30T07:01:29.380Z,15.20
2019-01-30T07:02:32.242Z,15.70
2019-01-30T07:03:29.351Z,15.00
2019-01-30T07:04:29.450Z,14.60
2019-01-30T07:05:29.394Z,13.50
2019-01-30T07:06:29.362Z,14.60
2019-01-30T07:07:29.434Z,14.60
2019-01-30T07:08:29.373Z,13.50
2019-01-30T07:09:29.404Z,13.20
2019-01-30T07:10:29.378Z,14.40
2019-01-30T07:11:29.381Z,13.90
2019-01-30T07:12:29.357Z,14.60
2019-01-30T07:13:29.380Z,13.20
2019-01-30T07:14:29.404Z,13.50
2019-01-30T07:15:29.410Z,13.40
2019-01-30T07:16:29.383Z,13.90
2019-01-30T07:17:29.375Z,14.10
2019-01-30T07:18:29.384Z,13.30
2019-01-30T07:19:29.381Z,14.90
2019-01-30T07:20:31.222Z,14.50
2019-01-30T07:21:29.408Z,14.40
2019-01-30T07:22:29.412Z,15.30
2019-01-30T07:23:29.377Z,17.20
2019-01-30T07:24:29.425Z,13.80
2019-01-30T07:25:29.442Z,13.60
2019-01-30T07:26:29.375Z,13.50
2019-01-30T07:27:29.381Z,13.80
2019-01-30T07:28:29.399Z,14.10
2019-01-30T07:29:29.403Z,13.40
2019-01-30T07:30:29.430Z,14.30
2019-01-30T07:31:29.462Z,15.20
2019-01-30T07:32:29.401Z,18.00
2019-01-30T07:33:29.430Z,16.50
2019-01-30T07:34:29.413Z,13.80
2019-01-30T07:35:29.443Z,14.40
2019-01-30T07:36:29.475Z,14.00
2019-01-30T07:37:29.418Z,16.90
2019-01-30T07:38:29.413Z,16.10
2019-01-30T07:39:29.386Z,15.40
2019-01-30T07:40:29.428Z,14.10
2019-01-30T07:41:29.523Z,16.00
2019-01-30T07:42:29.474Z,15.30
2019-01-30T07:43:29.431Z,15.50
2019-01-30T07:44:29.436Z,14.90
2019-01-30T07:45:29.425Z,14.90
2019-01-30T07:46:29.415Z,15.80
2019-01-30T07:47:29.559Z,14.90
2019-01-30T07:48:29.442Z,14.30
2019-01-30T07:49:29.438Z,14.60
2019-01-30T07:50:29.441Z,17.20
2019-01-30T07:51:29.438Z,14.80
2019-01-30T07:52:29.478Z,15.80
2019-01-30T07:53:29.509Z,17.30
2019-01-30T07:54:29.446Z,15.80
2019-01-30T07:55:29.458Z,15.30
2019-01-30T07:56:29.427Z,14.40
2019-01-30T07:57:29.563Z,16.20
2019-01-30T07:58:29.425Z,16.00
2019-01-30T07:59:31.928Z,16.60
2019-01-30T08:00:29.419Z,15.20
2019-01-30T08:01:29.420Z,18.40
2019-01-30T08:02:29.639Z,15.80
2019-01-30T08:03:29.441Z,18.90
2019-01-30T08:04:29.746Z,18.50
2019-01-30T08:05:29.436Z,18.10
2019-01-30T08:06:29.445Z,17.70
2019-01-30T08:07:29.450Z,17.20
2019-01-30T08:08:29.480Z,18.00
2019-01-30T08:09:29.430Z,17.30
2019-01-30T08:10:29.455Z,17.90
2019-01-30T08:11:29.490Z,19.00
2019-01-30T08:12:29.431Z,18.00
2019-01-30T08:13:29.440Z,17.80
2019-01-30T08:14:29.482Z,18.80
2019-01-30T08:15:29.474Z,19.70
2019-01-30T08:16:29.460Z,20.00
2019-01-30T08:17:29.475Z,18.90
2019-01-30T08:18:29.503Z,20.20
2019-01-30T08:19:29.511Z,19.50
2019-01-30T08:20:29.473Z,20.80
2019-01-30T08:21:29.463Z,19.80
2019-01-30T08:22:29.473Z,19.90
2019-01-30T08:23:29.636Z,19.00
2019-01-30T08:24:29.537Z,18.80
2019-01-30T08:25:29.580Z,18.90
2019-01-30T08:26:29.913Z,18.30
2019-01-30T08:27:29.533Z,19.70
2019-01-30T08:28:29.804Z,19.80
2019-01-30T08:29:29.582Z,18.90
2019-01-30T08:30:29.538Z,20.40
2019-01-30T08:31:29.608Z,19.70
2019-01-30T08:32:29.521Z,18.40
2019-01-30T08:33:29.487Z,20.30
2019-01-30T08:34:29.483Z,19.00
2019-01-30T08:35:29.581Z,18.70
2019-01-30T08:36:29.515Z,19.10
2019-01-30T08:37:29.586Z,21.80
2019-01-30T08:38:29.487Z,20.40
2019-01-30T08:39:29.474Z,20.70
2019-01-30T08:40:29.485Z,19.90
2019-01-30T08:41:29.575Z,21.10
2019-01-30T08:42:29.493Z,20.40
2019-01-30T08:43:29.486Z,19.50
2019-01-30T08:44:29.514Z,19.10
2019-01-30T08:45:29.642Z,18.20
2019-01-30T08:46:29.516Z,19.00
2019-01-30T08:47:29.538Z,18.50
2019-01-30T08:48:30.234Z,18.30
2019-01-30T08:49:29.534Z,17.70
2019-01-30T08:50:29.548Z,19.30
2019-01-30T08:51:29.503Z,17.50
2019-01-30T08:52:29.575Z,17.70
2019-01-30T08:53:29.517Z,18.40
2019-01-30T08:54:29.511Z,19.20
2019-01-30T08:55:29.498Z,18.10
2019-01-30T08:56:29.525Z,18.30
2019-01-30T08:57:29.516Z,18.20
2019-01-30T08:58:29.524Z,17.50
2019-01-30T08:59:29.523Z,17.30
2019-01-30T09:00:29.536Z,19.40
2019-01-30T09:01:29.519Z,19.00
2019-01-30T09:02:29.527Z,18.70
2019-01-30T09:03:29.581Z,18.60
2019-01-30T09:04:29.560Z,17.40
2019-01-30T09:05:29.539Z,18.20
2019-01-30T09:06:29.553Z,17.80
2019-01-30T09:07:29.562Z,18.00
2019-01-30T09:08:29.562Z,19.30
2019-01-30T09:09:29.548Z,19.00
2019-01-30T09:10:29.591Z,18.40
2019-01-30T09:11:29.580Z,18.10
2019-01-30T09:12:29.591Z,16.70
2019-01-30T09:13:29.589Z,18.70
2019-01-30T09:14:29.545Z,19.00
2019-01-30T09:15:29.606Z,18.20
2019-01-30T09:16:29.545Z,18.30
2019-01-30T09:17:29.574Z,19.00
2019-01-30T09:18:29.566Z,18.90
2019-01-30T09:19:29.614Z,17.70
2019-01-30T09:20:29.576Z,18.40
2019-01-30T09:21:29.577Z,18.80
2019-01-30T09:22:29.572Z,18.80
2019-01-30T09:23:29.553Z,18.70
2019-01-30T09:24:29.601Z,18.90
2019-01-30T09:25:29.602Z,19.60
2019-01-30T09:26:29.600Z,18.90
2019-01-30T09:27:29.597Z,21.80
2019-01-30T09:28:29.780Z,18.50
2019-01-30T09:29:29.581Z,20.80
2019-01-30T09:30:29.601Z,21.60
2019-01-30T09:31:29.603Z,21.20
2019-01-30T09:32:29.567Z,19.10
2019-01-30T09:33:29.565Z,18.00
2019-01-30T09:34:29.590Z,19.10
2019-01-30T09:35:29.683Z,21.40
2019-01-30T09:36:29.626Z,20.00
2019-01-30T09:37:29.612Z,19.30
2019-01-30T09:38:29.650Z,18.90
2019-01-30T09:39:29.749Z,19.80
2019-01-30T09:40:29.606Z,18.70
2019-01-30T09:41:29.587Z,19.90
2019-01-30T09:42:29.621Z,20.70
2019-01-30T09:43:29.610Z,19.10
2019-01-30T09:44:29.587Z,18.10
2019-01-30T09:45:29.611Z,19.90
2019-01-30T09:46:29.618Z,18.20
2019-01-30T09:47:29.627Z,17.80
2019-01-30T09:48:29.617Z,18.90
2019-01-30T09:49:29.656Z,19.50
2019-01-30T09:50:29.673Z,19.50
2019-01-30T09:51:29.610Z,18.70
2019-01-30T09:52:29.699Z,20.10
2019-01-30T09:53:29.649Z,19.00
2019-01-30T09:54:29.677Z,19.70
2019-01-30T09:55:29.669Z,18.00
2019-01-30T09:56:29.652Z,19.20
2019-01-30T09:57:29.678Z,17.00
2019-01-30T09:58:29.683Z,17.10
2019-01-30T09:59:29.646Z,16.40
2019-01-30T10:00:29.640Z,16.50
2019-01-30T10:01:29.695Z,17.00
2019-01-30T10:02:29.642Z,17.50
2019-01-30T10:03:36.141Z,16.30
2019-01-30T10:04:29.663Z,18.60
2019-01-30T10:05:29.673Z,16.20
2019-01-30T10:06:29.662Z,17.10
2019-01-30T10:07:29.657Z,15.70
2019-01-30T10:08:29.681Z,14.50
2019-01-30T10:09:29.678Z,14.20
2019-01-30T10:10:29.803Z,13.90
2019-01-30T10:11:29.645Z,12.90
2019-01-30T10:12:29.649Z,14.30
2019-01-30T10:13:29.700Z,14.00
2019-01-30T10:14:29.690Z,14.00
2019-01-30T10:15:29.674Z,14.50
2019-01-30T10:16:29.690Z,13.90
2019-01-30T10:17:31.106Z,14.00
2019-01-30T10:18:29.731Z,14.00
2019-01-30T10:19:29.728Z,15.10
2019-01-30T10:20:29.810Z,14.10
2019-01-30T10:21:29.722Z,14.40
2019-01-30T10:22:29.693Z,14.70
2019-01-30T10:23:29.683Z,15.20
2019-01-30T10:24:29.677Z,15.50
2019-01-30T10:25:29.682Z,15.70
2019-01-30T10:26:29.733Z,15.40
2019-01-30T10:27:29.958Z,17.50
2019-01-30T10:28:29.783Z,15.40
2019-01-30T10:29:29.718Z,15.40
2019-01-30T10:30:29.770Z,14.50
2019-01-30T10:31:29.707Z,14.40
2019-01-30T10:32:29.717Z,14.20
2019-01-30T10:33:29.697Z,13.40
2019-01-30T10:34:29.710Z,12.70
2019-01-30T10:35:29.712Z,13.70
2019-01-30T10:36:29.721Z,12.80
2019-01-30T10:37:29.720Z,11.70
2019-01-30T10:38:29.705Z,13.50
2019-01-30T10:39:29.728Z,12.70
2019-01-30T10:40:29.711Z,12.60
2019-01-30T10:41:29.757Z,13.50
2019-01-30T10:42:29.784Z,12.50
2019-01-30T10:43:29.776Z,11.80
2019-01-30T10:44:29.730Z,12.50
2019-01-30T10:45:29.724Z,13.60
2019-01-30T10:46:29.722Z,13.60
2019-01-30T10:47:29.732Z,13.60
2019-01-30T10:48:29.773Z,12.70
2019-01-30T10:49:29.734Z,12.50
2019-01-30T10:50:29.823Z,11.50
2019-01-30T10:51:29.742Z,11.90
2019-01-30T10:52:29.806Z,12.20
2019-01-30T10:53:29.743Z,11.40
2019-01-30T10:54:29.829Z,11.50
2019-01-30T10:55:29.792Z,13.00
2019-01-30T10:56:29.761Z,12.80
2019-01-30T10:57:29.751Z,14.00
2019-01-30T10:58:29.801Z,12.10
2019-01-30T10:59:29.778Z,13.20
2019-01-30T11:00:29.820Z,15.40
2019-01-30T11:01:29.769Z,13.10
2019-01-30T11:02:29.753Z,12.00
2019-01-30T11:03:29.790Z,11.30
2019-01-30T11:04:29.766Z,16.70
2019-01-30T11:05:29.815Z,12.70
2019-01-30T11:06:29.777Z,11.90
2019-01-30T11:07:29.764Z,11.10
2019-01-30T11:08:29.793Z,16.40
2019-01-30T11:09:29.798Z,14.10
2019-01-30T11:10:29.795Z,11.40
2019-01-30T11:11:29.817Z,12.30
2019-01-30T11:12:29.787Z,11.50
2019-01-30T11:13:29.786Z,15.10
2019-01-30T11:14:29.911Z,14.50
2019-01-30T11:15:29.795Z,12.90
2019-01-30T11:16:29.848Z,12.50
2019-01-30T11:17:29.918Z,13.60
2019-01-30T11:18:29.869Z,12.00
2019-01-30T11:19:29.901Z,11.10
2019-01-30T11:20:29.803Z,12.90
2019-01-30T11:21:29.931Z,11.70
2019-01-30T11:22:29.835Z,11.30
2019-01-30T11:23:29.800Z,11.90
2019-01-30T11:24:29.812Z,11.00
2019-01-30T11:25:29.806Z,11.10
2019-01-30T11:26:29.887Z,10.50
2019-01-30T11:27:29.847Z,10.60
2019-01-30T11:28:29.819Z,11.70
2019-01-30T11:29:29.860Z,11.10
2019-01-30T11:30:29.867Z,12.90
2019-01-30T11:31:29.866Z,9.60
2019-01-30T11:32:29.925Z,10.10
2019-01-30T11:33:29.835Z,11.70
2019-01-30T11:34:29.899Z,12.20
2019-01-30T11:35:29.943Z,11.60
2019-01-30T11:36:29.838Z,13.60
2019-01-30T11:37:29.878Z,13.10
2019-01-30T11:38:29.875Z,13.50
2019-01-30T11:39:29.890Z,12.50
2019-01-30T11:40:29.892Z,13.10
2019-01-30T11:41:29.857Z,12.30
2019-01-30T11:42:29.866Z,11.70
2019-01-30T11:43:29.859Z,12.70
2019-01-30T11:44:29.894Z,11.20
2019-01-30T11:45:30.164Z,16.60
2019-01-30T11:46:30.074Z,13.30
2019-01-30T11:47:29.857Z,11.60
2019-01-30T11:48:29.886Z,13.00
2019-01-30T11:49:29.867Z,11.90
2019-01-30T11:50:29.924Z,12.70
2019-01-30T11:51:29.902Z,13.20
2019-01-30T11:52:29.866Z,12.60
2019-01-30T11:53:29.933Z,12.90
2019-01-30T11:54:38.662Z,12.10
2019-01-30T11:55:29.957Z,13.90
2019-01-30T11:56:29.895Z,14.40
2019-01-30T11:57:29.906Z,14.00
2019-01-30T11:58:29.887Z,13.40
2019-01-30T11:59:29.920Z,16.20
2019-01-30T12:00:29.919Z,15.20
2019-01-30T12:01:29.919Z,14.50
2019-01-30T12:02:29.905Z,13.50
2019-01-30T12:03:29.945Z,15.30
2019-01-30T12:04:29.901Z,14.70
2019-01-30T12:05:29.968Z,12.80
2019-01-30T12:06:29.942Z,13.70
2019-01-30T12:07:29.914Z,13.20
2019-01-30T12:08:29.957Z,13.20
2019-01-30T12:09:29.931Z,13.90
2019-01-30T12:10:29.983Z,13.10
2019-01-30T12:11:29.958Z,13.70
2019-01-30T12:12:29.975Z,14.10
2019-01-30T12:13:29.943Z,14.30
2019-01-30T12:14:29.943Z,13.40
2019-01-30T12:15:29.954Z,12.00
2019-01-30T12:16:29.979Z,12.20
2019-01-30T12:17:29.948Z,12.50
2019-01-30T12:18:29.959Z,13.00
2019-01-30T12:19:29.974Z,12.20
2019-01-30T12:20:30.018Z,11.40
2019-01-30T12:21:30.056Z,11.50
2019-01-30T12:22:29.983Z,12.70
2019-01-30T12:23:29.961Z,13.30
2019-01-30T12:24:30.093Z,14.90
2019-01-30T12:25:29.951Z,15.40
2019-01-30T12:26:30.057Z,16.80
2019-01-30T12:27:29.997Z,13.70
2019-01-30T12:28:29.985Z,12.20
2019-01-30T12:29:30.014Z,13.30
2019-01-30T12:30:29.994Z,12.20
2019-01-30T12:31:30.000Z,13.10
2019-01-30T12:32:30.035Z,12.30
2019-01-30T12:33:29.986Z,12.40
2019-01-30T12:34:29.996Z,11.50
2019-01-30T12:35:30.004Z,12.50
2019-01-30T12:36:30.035Z,12.10
2019-01-30T12:37:30.018Z,12.40
2019-01-30T12:38:30.031Z,13.60
2019-01-30T12:39:30.012Z,11.40
2019-01-30T12:40:30.033Z,11.90
2019-01-30T12:41:30.024Z,11.70
2019-01-30T12:42:30.019Z,13.80
2019-01-30T12:43:30.077Z,13.20
2019-01-30T12:44:30.029Z,11.80
2019-01-30T12:45:30.041Z,12.30
2019-01-30T12:46:30.017Z,11.70
2019-01-30T12:47:30.040Z,11.70
2019-01-30T12:48:30.092Z,11.70
2019-01-30T12:49:30.046Z,11.80
2019-01-30T12:50:30.065Z,13.40
2019-01-30T12:51:30.063Z,12.80
2019-01-30T12:52:30.077Z,12.50